sensor_id;sensor_type;location;lat;lon;timestamp;P1;durP1;ratioP1;P2;durP2;ratioP2
66893;SDS011;53801;55.786;49.142;2022-12-05T00:00:46;14.25;;;4.10;;
66893;SDS011;53801;55.786;49.142;2022-12-05T00:03:11;13.73;;;4.77;;
66893;SDS011;53801;55.786;49.142;2022-12-05T00:05:40;8.60;;;2.63;;
66893;SDS011;53801;55.786;49.142;2022-12-05T00:08:05;11.27;;;3.90;;
66893;SDS011;53801;55.786;49.142;2022-12-05T00:10:30;13.53;;;5.03;;
66893;SDS011;53801;55.786;49.142;2022-12-05T00:12:56;11.27;;;4.00;;
66893;SDS011;53801;55.786;49.142;2022-12-05T00:15:21;13.53;;;4.53;;
66893;SDS011;53801;55.786;49.142;2022-12-05T00:17:54;14.02;;;3.33;;
66893;SDS011;53801;55.786;49.142;2022-12-05T00:20:19;11.83;;;3.63;;
66893;SDS011;53801;55.786;49.142;2022-12-05T00:25:31;18.40;;;4.20;;
66893;SDS011;53801;55.786;49.142;2022-12-05T00:27:56;11.30;;;3.85;;
66893;SDS011;53801;55.786;49.142;2022-12-05T00:30:25;15.53;;;5.00;;
66893;SDS011;53801;55.786;49.142;2022-12-05T00:32:50;15.48;;;4.80;;
66893;SDS011;53801;55.786;49.142;2022-12-05T00:35:16;11.83;;;3.80;;
66893;SDS011;53801;55.786;49.142;2022-12-05T00:40:16;13.65;;;3.95;;
66893;SDS011;53801;55.786;49.142;2022-12-05T00:42:42;10.33;;;3.67;;
66893;SDS011;53801;55.786;49.142;2022-12-05T00:45:07;9.83;;;4.50;;
66893;SDS011;53801;55.786;49.142;2022-12-05T00:47:35;14.02;;;4.13;;
66893;SDS011;53801;55.786;49.142;2022-12-05T00:50:01;14.80;;;4.87;;
66893;SDS011;53801;55.786;49.142;2022-12-05T00:55:02;15.00;;;4.68;;
66893;SDS011;53801;55.786;49.142;2022-12-05T00:57:28;11.82;;;3.45;;
66893;SDS011;53801;55.786;49.142;2022-12-05T00:59:54;12.73;;;4.07;;
66893;SDS011;53801;55.786;49.142;2022-12-05T01:02:21;11.63;;;3.10;;
66893;SDS011;53801;55.786;49.142;2022-12-05T01:04:47;14.02;;;3.63;;
66893;SDS011;53801;55.786;49.142;2022-12-05T01:07:12;11.30;;;4.10;;
66893;SDS011;53801;55.786;49.142;2022-12-05T01:09:38;12.10;;;4.10;;
66893;SDS011;53801;55.786;49.142;2022-12-05T01:12:03;12.60;;;3.87;;
66893;SDS011;53801;55.786;49.142;2022-12-05T01:14:29;10.17;;;4.20;;
66893;SDS011;53801;55.786;49.142;2022-12-05T01:16:55;14.93;;;4.45;;
66893;SDS011;53801;55.786;49.142;2022-12-05T01:19:24;10.48;;;4.38;;
66893;SDS011;53801;55.786;49.142;2022-12-05T01:21:50;17.35;;;4.35;;
66893;SDS011;53801;55.786;49.142;2022-12-05T01:24:15;8.17;;;2.80;;
66893;SDS011;53801;55.786;49.142;2022-12-05T01:26:41;10.43;;;3.35;;
66893;SDS011;53801;55.786;49.142;2022-12-05T01:29:07;8.35;;;3.10;;
66893;SDS011;53801;55.786;49.142;2022-12-05T01:31:34;12.73;;;5.10;;
66893;SDS011;53801;55.786;49.142;2022-12-05T01:34:00;13.68;;;3.72;;
66893;SDS011;53801;55.786;49.142;2022-12-05T01:36:26;9.57;;;3.03;;
66893;SDS011;53801;55.786;49.142;2022-12-05T01:38:52;15.90;;;4.87;;
66893;SDS011;53801;55.786;49.142;2022-12-05T01:41:19;11.23;;;3.37;;
66893;SDS011;53801;55.786;49.142;2022-12-05T01:46:20;8.97;;;3.37;;
66893;SDS011;53801;55.786;49.142;2022-12-05T01:48:45;11.65;;;3.25;;
66893;SDS011;53801;55.786;49.142;2022-12-05T01:56:13;8.80;;;4.05;;
66893;SDS011;53801;55.786;49.142;2022-12-05T01:58:38;11.93;;;4.23;;
66893;SDS011;53801;55.786;49.142;2022-12-05T02:01:05;8.02;;;2.33;;
66893;SDS011;53801;55.786;49.142;2022-12-05T02:03:30;10.57;;;3.50;;
66893;SDS011;53801;55.786;49.142;2022-12-05T02:05:58;8.18;;;2.42;;
66893;SDS011;53801;55.786;49.142;2022-12-05T02:08:25;17.97;;;4.30;;
66893;SDS011;53801;55.786;49.142;2022-12-05T02:13:43;6.22;;;2.53;;
66893;SDS011;53801;55.786;49.142;2022-12-05T02:16:13;9.53;;;3.53;;
66893;SDS011;53801;55.786;49.142;2022-12-05T02:24:10;13.17;;;3.30;;
66893;SDS011;53801;55.786;49.142;2022-12-05T02:26:45;16.83;;;3.72;;
66893;SDS011;53801;55.786;49.142;2022-12-05T02:31:43;6.43;;;3.55;;
66893;SDS011;53801;55.786;49.142;2022-12-05T02:34:16;5.82;;;2.50;;
66893;SDS011;53801;55.786;49.142;2022-12-05T02:39:39;15.40;;;4.75;;
66893;SDS011;53801;55.786;49.142;2022-12-05T02:42:11;10.88;;;3.67;;
66893;SDS011;53801;55.786;49.142;2022-12-05T02:49:53;11.80;;;1.90;;
66893;SDS011;53801;55.786;49.142;2022-12-05T02:54:40;3.47;;;1.80;;
66893;SDS011;53801;55.786;49.142;2022-12-05T02:57:06;5.88;;;2.55;;
66893;SDS011;53801;55.786;49.142;2022-12-05T02:59:32;14.55;;;3.30;;
66893;SDS011;53801;55.786;49.142;2022-12-05T03:01:58;8.63;;;3.83;;
66893;SDS011;53801;55.786;49.142;2022-12-05T03:04:23;9.40;;;3.53;;
66893;SDS011;53801;55.786;49.142;2022-12-05T03:07:02;11.23;;;3.78;;
66893;SDS011;53801;55.786;49.142;2022-12-05T03:09:36;7.77;;;3.03;;
66893;SDS011;53801;55.786;49.142;2022-12-05T03:20:28;16.98;;;3.88;;
66893;SDS011;53801;55.786;49.142;2022-12-05T03:22:59;9.80;;;3.00;;
66893;SDS011;53801;55.786;49.142;2022-12-05T03:25:30;9.05;;;3.13;;
66893;SDS011;53801;55.786;49.142;2022-12-05T03:28:03;9.67;;;2.70;;
66893;SDS011;53801;55.786;49.142;2022-12-05T03:30:43;9.18;;;3.92;;
66893;SDS011;53801;55.786;49.142;2022-12-05T03:33:17;10.75;;;3.92;;
66893;SDS011;53801;55.786;49.142;2022-12-05T03:41:06;9.45;;;2.90;;
66893;SDS011;53801;55.786;49.142;2022-12-05T03:43:36;15.95;;;4.60;;
66893;SDS011;53801;55.786;49.142;2022-12-05T03:46:12;9.15;;;3.30;;
66893;SDS011;53801;55.786;49.142;2022-12-05T03:51:32;18.65;;;4.03;;
66893;SDS011;53801;55.786;49.142;2022-12-05T03:54:07;9.57;;;3.27;;
66893;SDS011;53801;55.786;49.142;2022-12-05T03:56:48;6.75;;;2.20;;
66893;SDS011;53801;55.786;49.142;2022-12-05T03:59:18;12.70;;;2.80;;
66893;SDS011;53801;55.786;49.142;2022-12-05T04:01:47;6.47;;;2.27;;
66893;SDS011;53801;55.786;49.142;2022-12-05T04:04:20;8.52;;;3.03;;
66893;SDS011;53801;55.786;49.142;2022-12-05T04:06:48;9.70;;;2.83;;
66893;SDS011;53801;55.786;49.142;2022-12-05T04:09:16;4.90;;;1.65;;
66893;SDS011;53801;55.786;49.142;2022-12-05T04:11:42;14.90;;;3.50;;
66893;SDS011;53801;55.786;49.142;2022-12-05T04:16:44;10.15;;;2.95;;
66893;SDS011;53801;55.786;49.142;2022-12-05T04:22:32;11.02;;;3.80;;
66893;SDS011;53801;55.786;49.142;2022-12-05T04:24:58;9.53;;;2.90;;
66893;SDS011;53801;55.786;49.142;2022-12-05T04:38:10;7.10;;;2.65;;
66893;SDS011;53801;55.786;49.142;2022-12-05T04:40:38;8.05;;;2.38;;
66893;SDS011;53801;55.786;49.142;2022-12-05T04:43:05;8.67;;;2.80;;
66893;SDS011;53801;55.786;49.142;2022-12-05T04:45:33;8.68;;;3.45;;
66893;SDS011;53801;55.786;49.142;2022-12-05T04:48:03;10.30;;;3.33;;
66893;SDS011;53801;55.786;49.142;2022-12-05T04:50:31;8.77;;;3.30;;
66893;SDS011;53801;55.786;49.142;2022-12-05T04:52:57;12.95;;;4.15;;
66893;SDS011;53801;55.786;49.142;2022-12-05T04:55:24;8.10;;;3.05;;
66893;SDS011;53801;55.786;49.142;2022-12-05T05:00:18;9.77;;;3.17;;
66893;SDS011;53801;55.786;49.142;2022-12-05T05:02:47;13.07;;;3.63;;
66893;SDS011;53801;55.786;49.142;2022-12-05T05:05:15;7.80;;;2.70;;
66893;SDS011;53801;55.786;49.142;2022-12-05T05:07:53;8.68;;;3.53;;
66893;SDS011;53801;55.786;49.142;2022-12-05T05:10:32;9.73;;;3.05;;
66893;SDS011;53801;55.786;49.142;2022-12-05T05:12:58;11.10;;;3.45;;
66893;SDS011;53801;55.786;49.142;2022-12-05T05:15:23;15.50;;;4.83;;
66893;SDS011;53801;55.786;49.142;2022-12-05T05:17:56;9.77;;;3.63;;
66893;SDS011;53801;55.786;49.142;2022-12-05T05:20:22;13.23;;;2.97;;
66893;SDS011;53801;55.786;49.142;2022-12-05T05:22:57;12.43;;;3.95;;
66893;SDS011;53801;55.786;49.142;2022-12-05T05:25:23;9.30;;;4.07;;
66893;SDS011;53801;55.786;49.142;2022-12-05T05:27:53;17.20;;;4.55;;
66893;SDS011;53801;55.786;49.142;2022-12-05T05:30:19;8.48;;;3.42;;
66893;SDS011;53801;55.786;49.142;2022-12-05T05:32:45;8.07;;;3.55;;
66893;SDS011;53801;55.786;49.142;2022-12-05T05:35:11;13.73;;;4.37;;
66893;SDS011;53801;55.786;49.142;2022-12-05T05:37:37;11.47;;;3.33;;
66893;SDS011;53801;55.786;49.142;2022-12-05T05:40:02;17.63;;;5.22;;
66893;SDS011;53801;55.786;49.142;2022-12-05T05:42:28;12.03;;;4.67;;
66893;SDS011;53801;55.786;49.142;2022-12-05T05:44:54;13.40;;;4.83;;
66893;SDS011;53801;55.786;49.142;2022-12-05T05:47:35;9.77;;;3.17;;
66893;SDS011;53801;55.786;49.142;2022-12-05T05:50:00;12.07;;;3.77;;
66893;SDS011;53801;55.786;49.142;2022-12-05T05:52:31;8.38;;;3.58;;
66893;SDS011;53801;55.786;49.142;2022-12-05T05:55:00;16.08;;;5.05;;
66893;SDS011;53801;55.786;49.142;2022-12-05T05:57:25;10.23;;;3.35;;
66893;SDS011;53801;55.786;49.142;2022-12-05T06:00:13;15.97;;;4.27;;
66893;SDS011;53801;55.786;49.142;2022-12-05T06:03:09;12.57;;;3.78;;
66893;SDS011;53801;55.786;49.142;2022-12-05T06:05:35;11.63;;;3.70;;
66893;SDS011;53801;55.786;49.142;2022-12-05T06:08:01;12.90;;;4.82;;
66893;SDS011;53801;55.786;49.142;2022-12-05T06:10:26;14.00;;;4.77;;
66893;SDS011;53801;55.786;49.142;2022-12-05T06:13:11;8.52;;;3.20;;
66893;SDS011;53801;55.786;49.142;2022-12-05T06:15:43;15.77;;;5.07;;
66893;SDS011;53801;55.786;49.142;2022-12-05T06:18:22;17.73;;;5.93;;
66893;SDS011;53801;55.786;49.142;2022-12-05T06:20:53;12.10;;;4.18;;
66893;SDS011;53801;55.786;49.142;2022-12-05T06:23:34;5.60;;;2.13;;
66893;SDS011;53801;55.786;49.142;2022-12-05T06:26:46;12.60;;;3.40;;
66893;SDS011;53801;55.786;49.142;2022-12-05T06:29:41;11.50;;;4.88;;
66893;SDS011;53801;55.786;49.142;2022-12-05T06:32:22;16.48;;;4.93;;
66893;SDS011;53801;55.786;49.142;2022-12-05T06:44:37;11.18;;;4.38;;
66893;SDS011;53801;55.786;49.142;2022-12-05T06:47:05;10.67;;;4.53;;
66893;SDS011;53801;55.786;49.142;2022-12-05T06:49:35;17.13;;;4.90;;
66893;SDS011;53801;55.786;49.142;2022-12-05T06:52:13;9.55;;;3.95;;
66893;SDS011;53801;55.786;49.142;2022-12-05T06:59:56;21.23;;;7.28;;
66893;SDS011;53801;55.786;49.142;2022-12-05T07:02:41;22.77;;;7.38;;
66893;SDS011;53801;55.786;49.142;2022-12-05T07:05:09;21.97;;;8.80;;
66893;SDS011;53801;55.786;49.142;2022-12-05T07:10:03;22.77;;;8.80;;
66893;SDS011;53801;55.786;49.142;2022-12-05T07:12:29;25.67;;;9.20;;
66893;SDS011;53801;55.786;49.142;2022-12-05T07:15:02;27.30;;;9.60;;
66893;SDS011;53801;55.786;49.142;2022-12-05T07:17:29;25.10;;;9.43;;
66893;SDS011;53801;55.786;49.142;2022-12-05T07:19:54;27.13;;;9.67;;
66893;SDS011;53801;55.786;49.142;2022-12-05T07:22:20;23.37;;;8.87;;
66893;SDS011;53801;55.786;49.142;2022-12-05T07:24:46;25.67;;;9.95;;
66893;SDS011;53801;55.786;49.142;2022-12-05T07:27:12;29.08;;;10.00;;
66893;SDS011;53801;55.786;49.142;2022-12-05T07:29:37;26.08;;;9.15;;
66893;SDS011;53801;55.786;49.142;2022-12-05T07:32:03;26.42;;;8.63;;
66893;SDS011;53801;55.786;49.142;2022-12-05T07:37:12;30.33;;;9.07;;
66893;SDS011;53801;55.786;49.142;2022-12-05T07:39:38;30.33;;;9.47;;
66893;SDS011;53801;55.786;49.142;2022-12-05T07:42:04;22.70;;;9.05;;
66893;SDS011;53801;55.786;49.142;2022-12-05T07:44:30;29.37;;;10.17;;
66893;SDS011;53801;55.786;49.142;2022-12-05T07:47:13;23.88;;;10.27;;
66893;SDS011;53801;55.786;49.142;2022-12-05T07:49:38;29.97;;;9.30;;
66893;SDS011;53801;55.786;49.142;2022-12-05T07:52:04;27.93;;;9.87;;
66893;SDS011;53801;55.786;49.142;2022-12-05T07:54:29;20.83;;;7.38;;
66893;SDS011;53801;55.786;49.142;2022-12-05T07:56:55;26.97;;;9.80;;
66893;SDS011;53801;55.786;49.142;2022-12-05T07:59:20;22.10;;;7.80;;
66893;SDS011;53801;55.786;49.142;2022-12-05T08:01:48;35.03;;;10.13;;
66893;SDS011;53801;55.786;49.142;2022-12-05T08:07:15;28.13;;;10.20;;
66893;SDS011;53801;55.786;49.142;2022-12-05T08:09:41;29.90;;;9.13;;
66893;SDS011;53801;55.786;49.142;2022-12-05T08:12:06;24.33;;;8.90;;
66893;SDS011;53801;55.786;49.142;2022-12-05T08:14:32;25.53;;;9.00;;
66893;SDS011;53801;55.786;49.142;2022-12-05T08:16:57;23.13;;;9.55;;
66893;SDS011;53801;55.786;49.142;2022-12-05T08:19:27;24.08;;;8.60;;
66893;SDS011;53801;55.786;49.142;2022-12-05T08:21:53;23.30;;;9.45;;
66893;SDS011;53801;55.786;49.142;2022-12-05T08:24:19;24.73;;;8.77;;
66893;SDS011;53801;55.786;49.142;2022-12-05T08:26:44;27.77;;;10.07;;
66893;SDS011;53801;55.786;49.142;2022-12-05T08:29:10;29.70;;;10.60;;
66893;SDS011;53801;55.786;49.142;2022-12-05T08:31:43;23.70;;;9.50;;
66893;SDS011;53801;55.786;49.142;2022-12-05T08:34:11;23.17;;;9.07;;
66893;SDS011;53801;55.786;49.142;2022-12-05T08:36:37;26.38;;;10.45;;
66893;SDS011;53801;55.786;49.142;2022-12-05T08:39:03;25.83;;;9.57;;
66893;SDS011;53801;55.786;49.142;2022-12-05T08:41:31;26.42;;;9.68;;
66893;SDS011;53801;55.786;49.142;2022-12-05T08:44:03;24.02;;;8.95;;
66893;SDS011;53801;55.786;49.142;2022-12-05T08:46:30;23.75;;;9.35;;
66893;SDS011;53801;55.786;49.142;2022-12-05T08:48:55;25.13;;;8.97;;
66893;SDS011;53801;55.786;49.142;2022-12-05T08:51:21;23.45;;;9.32;;
66893;SDS011;53801;55.786;49.142;2022-12-05T08:53:46;27.03;;;8.97;;
66893;SDS011;53801;55.786;49.142;2022-12-05T08:56:12;25.17;;;9.70;;
66893;SDS011;53801;55.786;49.142;2022-12-05T08:58:37;23.73;;;8.75;;
66893;SDS011;53801;55.786;49.142;2022-12-05T09:01:03;19.93;;;8.03;;
66893;SDS011;53801;55.786;49.142;2022-12-05T09:03:29;25.00;;;8.87;;
66893;SDS011;53801;55.786;49.142;2022-12-05T09:06:03;23.42;;;8.48;;
66893;SDS011;53801;55.786;49.142;2022-12-05T09:08:29;23.27;;;8.77;;
66893;SDS011;53801;55.786;49.142;2022-12-05T09:10:56;21.47;;;8.43;;
66893;SDS011;53801;55.786;49.142;2022-12-05T09:13:22;25.47;;;8.60;;
66893;SDS011;53801;55.786;49.142;2022-12-05T09:15:48;25.15;;;9.02;;
66893;SDS011;53801;55.786;49.142;2022-12-05T09:18:13;22.67;;;8.07;;
66893;SDS011;53801;55.786;49.142;2022-12-05T09:20:39;25.55;;;9.25;;
66893;SDS011;53801;55.786;49.142;2022-12-05T09:23:15;23.42;;;9.02;;
66893;SDS011;53801;55.786;49.142;2022-12-05T09:25:40;24.40;;;9.13;;
66893;SDS011;53801;55.786;49.142;2022-12-05T09:28:05;26.77;;;9.70;;
66893;SDS011;53801;55.786;49.142;2022-12-05T09:30:31;28.40;;;10.23;;
66893;SDS011;53801;55.786;49.142;2022-12-05T09:32:56;25.67;;;10.10;;
66893;SDS011;53801;55.786;49.142;2022-12-05T09:35:25;22.67;;;9.30;;
66893;SDS011;53801;55.786;49.142;2022-12-05T09:37:53;28.17;;;10.50;;
66893;SDS011;53801;55.786;49.142;2022-12-05T09:40:21;28.02;;;12.95;;
66893;SDS011;53801;55.786;49.142;2022-12-05T09:46:19;27.20;;;8.60;;
66893;SDS011;53801;55.786;49.142;2022-12-05T09:48:48;24.27;;;9.57;;
66893;SDS011;53801;55.786;49.142;2022-12-05T09:51:20;24.33;;;9.73;;
66893;SDS011;53801;55.786;49.142;2022-12-05T09:53:45;25.27;;;9.90;;
66893;SDS011;53801;55.786;49.142;2022-12-05T09:58:51;29.27;;;11.13;;
66893;SDS011;53801;55.786;49.142;2022-12-05T10:14:54;29.27;;;9.05;;
66893;SDS011;53801;55.786;49.142;2022-12-05T10:17:26;30.35;;;9.88;;
66893;SDS011;53801;55.786;49.142;2022-12-05T10:19:54;30.13;;;9.03;;
66893;SDS011;53801;55.786;49.142;2022-12-05T10:22:31;30.70;;;9.75;;
66893;SDS011;53801;55.786;49.142;2022-12-05T10:25:09;25.50;;;9.38;;
66893;SDS011;53801;55.786;49.142;2022-12-05T10:27:37;23.90;;;8.73;;
66893;SDS011;53801;55.786;49.142;2022-12-05T10:32:32;23.50;;;9.57;;
66893;SDS011;53801;55.786;49.142;2022-12-05T10:37:51;21.05;;;8.10;;
66893;SDS011;53801;55.786;49.142;2022-12-05T10:40:17;26.98;;;9.13;;
66893;SDS011;53801;55.786;49.142;2022-12-05T10:42:48;23.87;;;8.30;;
66893;SDS011;53801;55.786;49.142;2022-12-05T10:47:59;27.83;;;9.20;;
66893;SDS011;53801;55.786;49.142;2022-12-05T10:50:29;22.50;;;7.65;;
66893;SDS011;53801;55.786;49.142;2022-12-05T10:52:56;22.43;;;7.77;;
66893;SDS011;53801;55.786;49.142;2022-12-05T10:59:14;20.83;;;7.07;;
66893;SDS011;53801;55.786;49.142;2022-12-05T11:01:47;21.67;;;6.38;;
66893;SDS011;53801;55.786;49.142;2022-12-05T11:06:53;18.35;;;6.47;;
66893;SDS011;53801;55.786;49.142;2022-12-05T11:09:20;23.50;;;6.63;;
66893;SDS011;53801;55.786;49.142;2022-12-05T11:12:00;17.90;;;5.68;;
66893;SDS011;53801;55.786;49.142;2022-12-05T11:14:27;19.80;;;5.55;;
66893;SDS011;53801;55.786;49.142;2022-12-05T11:16:57;19.90;;;6.32;;
66893;SDS011;53801;55.786;49.142;2022-12-05T11:19:27;18.60;;;6.47;;
66893;SDS011;53801;55.786;49.142;2022-12-05T11:21:53;17.35;;;6.45;;
66893;SDS011;53801;55.786;49.142;2022-12-05T11:29:34;19.20;;;6.68;;
66893;SDS011;53801;55.786;49.142;2022-12-05T11:32:01;16.35;;;5.85;;
66893;SDS011;53801;55.786;49.142;2022-12-05T11:34:48;17.40;;;6.17;;
66893;SDS011;53801;55.786;49.142;2022-12-05T11:37:17;20.42;;;6.70;;
66893;SDS011;53801;55.786;49.142;2022-12-05T11:39:44;16.58;;;6.00;;
66893;SDS011;53801;55.786;49.142;2022-12-05T11:42:21;16.97;;;5.83;;
66893;SDS011;53801;55.786;49.142;2022-12-05T11:50:38;16.48;;;5.07;;
66893;SDS011;53801;55.786;49.142;2022-12-05T11:53:12;20.25;;;6.75;;
66893;SDS011;53801;55.786;49.142;2022-12-05T11:55:50;17.75;;;5.22;;
66893;SDS011;53801;55.786;49.142;2022-12-05T12:17:25;17.00;;;4.72;;
66893;SDS011;53801;55.786;49.142;2022-12-05T12:50:41;13.13;;;4.93;;
66893;SDS011;53801;55.786;49.142;2022-12-05T13:03:48;20.52;;;6.90;;
66893;SDS011;53801;55.786;49.142;2022-12-05T13:06:17;18.50;;;6.53;;
66893;SDS011;53801;55.786;49.142;2022-12-05T13:08:58;19.00;;;6.15;;
66893;SDS011;53801;55.786;49.142;2022-12-05T13:11:26;17.08;;;6.65;;
66893;SDS011;53801;55.786;49.142;2022-12-05T13:13:54;15.55;;;5.55;;
66893;SDS011;53801;55.786;49.142;2022-12-05T13:16:31;19.77;;;7.00;;
66893;SDS011;53801;55.786;49.142;2022-12-05T13:18:58;16.00;;;6.15;;
66893;SDS011;53801;55.786;49.142;2022-12-05T13:21:24;17.60;;;5.85;;
66893;SDS011;53801;55.786;49.142;2022-12-05T13:23:54;15.30;;;4.83;;
66893;SDS011;53801;55.786;49.142;2022-12-05T13:26:21;21.63;;;6.70;;
66893;SDS011;53801;55.786;49.142;2022-12-05T13:31:16;19.57;;;5.90;;
66893;SDS011;53801;55.786;49.142;2022-12-05T13:33:44;21.83;;;6.00;;
66893;SDS011;53801;55.786;49.142;2022-12-05T13:36:11;19.15;;;6.25;;
66893;SDS011;53801;55.786;49.142;2022-12-05T13:38:56;19.80;;;5.63;;
66893;SDS011;53801;55.786;49.142;2022-12-05T13:41:42;21.20;;;5.35;;
66893;SDS011;53801;55.786;49.142;2022-12-05T13:50:09;24.83;;;5.40;;
66893;SDS011;53801;55.786;49.142;2022-12-05T13:55:19;17.42;;;5.07;;
66893;SDS011;53801;55.786;49.142;2022-12-05T13:57:47;22.77;;;6.53;;
66893;SDS011;53801;55.786;49.142;2022-12-05T14:10:11;17.63;;;6.17;;
66893;SDS011;53801;55.786;49.142;2022-12-05T14:18:08;10.90;;;4.50;;
66893;SDS011;53801;55.786;49.142;2022-12-05T14:20:44;17.42;;;5.13;;
66893;SDS011;53801;55.786;49.142;2022-12-05T14:30:44;22.13;;;6.57;;
66893;SDS011;53801;55.786;49.142;2022-12-05T14:33:13;21.35;;;6.90;;
66893;SDS011;53801;55.786;49.142;2022-12-05T14:35:41;23.13;;;7.50;;
66893;SDS011;53801;55.786;49.142;2022-12-05T14:38:19;24.08;;;9.63;;
66893;SDS011;53801;55.786;49.142;2022-12-05T14:40:45;29.30;;;7.85;;
66893;SDS011;53801;55.786;49.142;2022-12-05T14:43:28;17.60;;;6.80;;
66893;SDS011;53801;55.786;49.142;2022-12-05T14:45:56;20.60;;;6.72;;
66893;SDS011;53801;55.786;49.142;2022-12-05T14:53:37;17.02;;;5.70;;
66893;SDS011;53801;55.786;49.142;2022-12-05T14:56:10;23.60;;;7.03;;
66893;SDS011;53801;55.786;49.142;2022-12-05T15:07:32;13.57;;;4.82;;
66893;SDS011;53801;55.786;49.142;2022-12-05T15:10:06;17.10;;;6.18;;
66893;SDS011;53801;55.786;49.142;2022-12-05T15:18:42;15.48;;;5.82;;
66893;SDS011;53801;55.786;49.142;2022-12-05T15:24:24;10.83;;;4.63;;
66893;SDS011;53801;55.786;49.142;2022-12-05T15:29:44;20.40;;;5.87;;
66893;SDS011;53801;55.786;49.142;2022-12-05T15:32:14;19.23;;;6.30;;
66893;SDS011;53801;55.786;49.142;2022-12-05T15:50:25;18.60;;;6.70;;
66893;SDS011;53801;55.786;49.142;2022-12-05T15:55:35;21.23;;;7.20;;
66893;SDS011;53801;55.786;49.142;2022-12-05T16:00:47;19.58;;;7.38;;
66893;SDS011;53801;55.786;49.142;2022-12-05T16:05:40;23.70;;;7.57;;
66893;SDS011;53801;55.786;49.142;2022-12-05T16:08:10;26.77;;;9.27;;
66893;SDS011;53801;55.786;49.142;2022-12-05T16:10:38;21.77;;;8.38;;
66893;SDS011;53801;55.786;49.142;2022-12-05T16:15:52;17.08;;;6.38;;
66893;SDS011;53801;55.786;49.142;2022-12-05T16:18:28;27.60;;;7.18;;
66893;SDS011;53801;55.786;49.142;2022-12-05T16:20:57;23.13;;;7.70;;
66893;SDS011;53801;55.786;49.142;2022-12-05T16:23:24;21.52;;;6.47;;
66893;SDS011;53801;55.786;49.142;2022-12-05T16:28:33;20.67;;;5.88;;
66893;SDS011;53801;55.786;49.142;2022-12-05T16:30:59;23.33;;;7.32;;
66893;SDS011;53801;55.786;49.142;2022-12-05T16:33:26;26.63;;;8.17;;
66893;SDS011;53801;55.786;49.142;2022-12-05T16:35:52;23.13;;;8.23;;
66893;SDS011;53801;55.786;49.142;2022-12-05T16:48:42;22.10;;;6.95;;
66893;SDS011;53801;55.786;49.142;2022-12-05T16:51:17;19.95;;;5.93;;
66893;SDS011;53801;55.786;49.142;2022-12-05T16:53:44;26.73;;;6.47;;
66893;SDS011;53801;55.786;49.142;2022-12-05T16:56:14;20.92;;;6.90;;
66893;SDS011;53801;55.786;49.142;2022-12-05T16:58:40;30.15;;;6.00;;
66893;SDS011;53801;55.786;49.142;2022-12-05T17:01:05;15.83;;;5.43;;
66893;SDS011;53801;55.786;49.142;2022-12-05T17:03:31;17.73;;;5.78;;
66893;SDS011;53801;55.786;49.142;2022-12-05T17:05:57;15.75;;;5.20;;
66893;SDS011;53801;55.786;49.142;2022-12-05T17:08:23;23.43;;;6.47;;
66893;SDS011;53801;55.786;49.142;2022-12-05T17:10:53;15.07;;;5.35;;
66893;SDS011;53801;55.786;49.142;2022-12-05T17:13:21;18.50;;;7.10;;
66893;SDS011;53801;55.786;49.142;2022-12-05T17:15:46;17.23;;;6.20;;
66893;SDS011;53801;55.786;49.142;2022-12-05T17:18:20;17.67;;;6.03;;
66893;SDS011;53801;55.786;49.142;2022-12-05T17:26:23;19.52;;;5.50;;
66893;SDS011;53801;55.786;49.142;2022-12-05T17:28:49;17.93;;;5.47;;
66893;SDS011;53801;55.786;49.142;2022-12-05T17:33:50;26.02;;;6.82;;
66893;SDS011;53801;55.786;49.142;2022-12-05T17:39:17;19.13;;;6.73;;
66893;SDS011;53801;55.786;49.142;2022-12-05T17:41:42;21.48;;;8.27;;
66893;SDS011;53801;55.786;49.142;2022-12-05T17:44:08;21.20;;;7.03;;
66893;SDS011;53801;55.786;49.142;2022-12-05T17:46:34;29.30;;;8.73;;
66893;SDS011;53801;55.786;49.142;2022-12-05T17:49:00;23.30;;;6.10;;
66893;SDS011;53801;55.786;49.142;2022-12-05T17:51:25;19.77;;;8.35;;
66893;SDS011;53801;55.786;49.142;2022-12-05T17:53:51;25.37;;;8.03;;
66893;SDS011;53801;55.786;49.142;2022-12-05T17:56:37;21.13;;;7.55;;
66893;SDS011;53801;55.786;49.142;2022-12-05T17:59:02;21.20;;;8.10;;
66893;SDS011;53801;55.786;49.142;2022-12-05T18:01:27;15.93;;;6.73;;
66893;SDS011;53801;55.786;49.142;2022-12-05T18:03:53;17.73;;;6.57;;
66893;SDS011;53801;55.786;49.142;2022-12-05T18:06:18;24.03;;;7.03;;
66893;SDS011;53801;55.786;49.142;2022-12-05T18:08:44;25.23;;;6.77;;
66893;SDS011;53801;55.786;49.142;2022-12-05T18:11:10;18.08;;;6.22;;
66893;SDS011;53801;55.786;49.142;2022-12-05T18:13:36;18.75;;;6.65;;
66893;SDS011;53801;55.786;49.142;2022-12-05T18:18:37;23.88;;;6.95;;
66893;SDS011;53801;55.786;49.142;2022-12-05T18:23:38;12.18;;;5.55;;
66893;SDS011;53801;55.786;49.142;2022-12-05T18:26:07;19.07;;;6.57;;
66893;SDS011;53801;55.786;49.142;2022-12-05T18:28:34;14.90;;;4.97;;
66893;SDS011;53801;55.786;49.142;2022-12-05T18:33:32;20.73;;;6.63;;
66893;SDS011;53801;55.786;49.142;2022-12-05T18:36:02;21.33;;;7.15;;
66893;SDS011;53801;55.786;49.142;2022-12-05T18:38:28;16.27;;;5.60;;
66893;SDS011;53801;55.786;49.142;2022-12-05T18:41:05;16.02;;;5.63;;
66893;SDS011;53801;55.786;49.142;2022-12-05T18:49:02;12.57;;;4.38;;
66893;SDS011;53801;55.786;49.142;2022-12-05T18:51:31;17.17;;;4.30;;
66893;SDS011;53801;55.786;49.142;2022-12-05T18:59:18;14.13;;;5.30;;
66893;SDS011;53801;55.786;49.142;2022-12-05T19:01:44;13.95;;;4.05;;
66893;SDS011;53801;55.786;49.142;2022-12-05T19:04:11;21.40;;;6.38;;
66893;SDS011;53801;55.786;49.142;2022-12-05T19:06:37;15.80;;;5.97;;
66893;SDS011;53801;55.786;49.142;2022-12-05T19:09:05;18.95;;;6.18;;
66893;SDS011;53801;55.786;49.142;2022-12-05T19:11:30;21.75;;;5.47;;
66893;SDS011;53801;55.786;49.142;2022-12-05T19:13:57;13.17;;;4.93;;
66893;SDS011;53801;55.786;49.142;2022-12-05T19:16:27;14.63;;;4.95;;
66893;SDS011;53801;55.786;49.142;2022-12-05T19:21:54;11.45;;;4.72;;
66893;SDS011;53801;55.786;49.142;2022-12-05T19:24:33;10.68;;;4.30;;
66893;SDS011;53801;55.786;49.142;2022-12-05T19:27:01;13.32;;;5.40;;
66893;SDS011;53801;55.786;49.142;2022-12-05T19:29:26;15.20;;;5.13;;
66893;SDS011;53801;55.786;49.142;2022-12-05T19:31:51;13.33;;;4.73;;
66893;SDS011;53801;55.786;49.142;2022-12-05T19:34:22;11.20;;;4.68;;
66893;SDS011;53801;55.786;49.142;2022-12-05T19:36:48;13.40;;;4.70;;
66893;SDS011;53801;55.786;49.142;2022-12-05T19:39:27;17.75;;;6.10;;
66893;SDS011;53801;55.786;49.142;2022-12-05T19:41:54;17.05;;;5.75;;
66893;SDS011;53801;55.786;49.142;2022-12-05T19:44:21;16.40;;;4.87;;
66893;SDS011;53801;55.786;49.142;2022-12-05T19:46:47;17.95;;;5.13;;
66893;SDS011;53801;55.786;49.142;2022-12-05T19:51:58;18.02;;;4.82;;
66893;SDS011;53801;55.786;49.142;2022-12-05T19:54:31;16.65;;;4.80;;
66893;SDS011;53801;55.786;49.142;2022-12-05T19:57:00;11.40;;;4.17;;
66893;SDS011;53801;55.786;49.142;2022-12-05T19:59:31;11.98;;;4.22;;
66893;SDS011;53801;55.786;49.142;2022-12-05T20:01:57;11.95;;;3.95;;
66893;SDS011;53801;55.786;49.142;2022-12-05T20:04:22;16.47;;;4.83;;
66893;SDS011;53801;55.786;49.142;2022-12-05T20:06:48;9.97;;;4.07;;
66893;SDS011;53801;55.786;49.142;2022-12-05T20:09:14;16.55;;;5.50;;